Time;durP1;ratioP1;P1;durP2;ratioP2;P2;SDS_P1;SDS_P2;PMS_P1;PMS_P2;Temp;Humidity;BMP_temperature;BMP_pressure;BME280_temperature;BME280_humidity;BME280_pressure;Samples;Min_cycle;Max_cycle;Signal;HPM_P1;HPM_P2
2022/06/19 00:00:35;;;;;;;2.78;1.27;;;;;;;20.41;63.67;99942.97;5084185;28;20044;-71
2022/06/19 00:03:05;;;;;;;6.63;1.58;;;;;;;20.41;63.17;99946.63;5081904;28;20051;-74
2022/06/19 00:05:32;;;;;;;4.13;1.95;;;;;;;20.43;63.43;99946.25;5078411;28;20147;-72
2022/06/19 00:07:59;;;;;;;4.82;1.27;;;;;;;20.16;63.39;99908.22;5075992;28;20120;-73
2022/06/19 00:10:26;;;;;;;3.00;1.17;;;;;;;20.02;63.00;99872.63;5076587;28;20588;-73
2022/06/19 00:12:53;;;;;;;3.72;1.33;;;;;;;20.34;63.00;99923.72;5080576;28;20125;-73
2022/06/19 00:15:20;;;;;;;4.22;1.73;;;;;;;20.26;63.21;99921.88;5077789;28;20036;-72
2022/06/19 00:17:47;;;;;;;6.30;1.30;;;;;;;20.36;62.85;99916.50;5072954;28;20056;-73
2022/06/19 00:20:14;;;;;;;3.50;1.13;;;;;;;20.46;62.75;99925.69;5083140;28;20076;-72
2022/06/19 00:22:41;;;;;;;5.55;1.17;;;;;;;20.18;62.96;99905.88;5082970;28;20048;-72
2022/06/19 00:25:08;;;;;;;5.60;1.40;;;;;;;20.35;63.23;99931.88;5083191;28;22767;-73
2022/06/19 00:27:37;;;;;;;6.00;1.85;;;;;;;20.33;63.30;99927.75;5082132;28;20051;-72
2022/06/19 00:30:07;;;;;;;3.63;1.50;;;;;;;20.20;63.11;99921.31;5083364;28;20135;-71
2022/06/19 00:32:34;;;;;;;7.18;1.23;;;;;;;19.80;63.51;99893.84;5090149;28;20057;-71
2022/06/19 00:35:01;;;;;;;3.60;1.42;;;;;;;20.02;63.11;99926.47;5080927;28;20079;-70
2022/06/19 00:37:29;;;;;;;5.82;1.77;;;;;;;19.71;63.41;99900.81;5094606;28;20048;-70
2022/06/19 00:39:56;;;;;;;3.72;1.75;;;;;;;19.75;63.51;99901.75;5080009;28;20156;-69
2022/06/19 00:42:24;;;;;;;6.93;1.67;;;;;;;19.99;63.66;99934.88;5082371;28;20113;-70
2022/06/19 00:44:52;;;;;;;6.72;1.58;;;;;;;19.63;63.23;99863.78;5086978;28;20044;-70
2022/06/19 00:47:22;;;;;;;3.40;1.27;;;;;;;19.98;62.99;99908.53;5075556;28;20083;-69
2022/06/19 00:50:18;;;;;;;4.13;1.98;;;;;;;20.00;62.77;99909.00;5080509;28;20075;-69
2022/06/19 00:52:46;;;;;;;6.68;1.45;;;;;;;20.31;62.83;99956.50;5088670;28;20106;-69
2022/06/19 00:55:18;;;;;;;2.33;1.33;;;;;;;20.31;62.76;99947.97;5086344;28;20090;-70
2022/06/19 00:57:50;;;;;;;5.15;1.55;;;;;;;20.02;63.04;99906.63;5092456;28;20044;-70
2022/06/19 01:00:26;;;;;;;4.15;1.60;;;;;;;20.33;63.35;99950.44;5078971;28;20079;-69
2022/06/19 01:03:15;;;;;;;5.18;1.60;;;;;;;20.31;63.48;99952.84;5081521;28;20094;-71
2022/06/19 01:05:44;;;;;;;6.38;1.65;;;;;;;20.23;63.66;99948.13;5088996;28;20563;-71
2022/06/19 01:08:11;;;;;;;3.90;1.35;;;;;;;19.96;63.24;99899.56;5080178;28;20044;-70
2022/06/19 01:10:42;;;;;;;6.18;1.67;;;;;;;20.33;63.41;99942.75;5084340;28;20514;-70
2022/06/19 01:13:11;;;;;;;4.63;1.20;;;;;;;20.04;63.14;99900.63;5093640;28;20503;-71
2022/06/19 01:15:39;;;;;;;4.70;1.63;;;;;;;20.22;62.99;99926.63;5077232;28;20071;-71
2022/06/19 01:18:09;;;;;;;6.32;1.60;;;;;;;19.88;62.65;99860.88;5095371;28;20097;-70
2022/06/19 01:20:37;;;;;;;3.20;1.38;;;;;;;20.21;62.67;99919.31;5089927;28;20109;-71
2022/06/19 01:23:20;;;;;;;4.85;1.27;;;;;;;20.16;62.82;99914.72;5083100;28;20440;-70
2022/06/19 01:25:51;;;;;;;2.80;1.23;;;;;;;20.01;62.83;99921.16;5075110;28;20044;-71
2022/06/19 01:31:23;;;;;;;1.65;1.10;;;;;;;19.82;62.92;99907.63;5079207;28;20076;-70
2022/06/19 01:33:58;;;;;;;4.03;1.42;;;;;;;19.75;62.93;99907.41;5082267;28;20047;-69
2022/06/19 01:36:27;;;;;;;1.70;1.10;;;;;;;19.59;63.07;99877.00;5073927;28;20048;-71
2022/06/19 01:38:54;;;;;;;4.93;1.30;;;;;;;19.81;62.69;99894.66;5073641;28;20084;-71
2022/06/19 01:41:41;;;;;;;2.42;1.33;;;;;;;19.82;62.97;99885.78;5088769;28;20525;-70
2022/06/19 01:44:08;;;;;;;2.50;1.10;;;;;;;19.77;62.76;99869.06;5083102;28;20045;-70
2022/06/19 01:46:35;;;;;;;6.20;1.80;;;;;;;19.71;62.99;99864.81;5080059;28;20131;-70
2022/06/19 01:49:02;;;;;;;2.50;1.30;;;;;;;19.62;63.35;99881.94;5078542;28;20044;-70
2022/06/19 01:51:31;;;;;;;3.67;1.85;;;;;;;19.15;63.12;99783.44;5075673;28;20094;-70
2022/06/19 01:54:04;;;;;;;10.07;1.80;;;;;;;19.35;63.37;99797.75;5079845;28;20083;-69
2022/06/19 01:56:31;;;;;;;7.22;1.60;;;;;;;19.61;63.73;99851.13;5087336;28;20044;-70
2022/06/19 01:59:05;;;;;;;9.10;1.63;;;;;;;19.77;63.62;99857.72;5087436;28;20125;-69
2022/06/19 02:01:35;;;;;;;6.30;3.25;;;;;;;19.75;63.67;99851.59;5082816;28;20044;-69
2022/06/19 02:04:05;;;;;;;7.53;3.75;;;;;;;19.68;63.73;99830.72;5085301;28;20062;-71
2022/06/19 02:06:40;;;;;;;4.90;3.00;;;;;;;19.48;63.78;99824.03;5071673;28;20056;-69
2022/06/19 02:09:08;;;;;;;4.68;2.90;;;;;;;19.62;63.86;99847.09;5078841;28;20079;-70
2022/06/19 02:11:36;;;;;;;4.38;2.80;;;;;;;19.49;63.67;99818.03;5081475;28;20071;-70
2022/06/19 02:14:06;;;;;;;5.45;3.30;;;;;;;19.36;63.87;99783.25;5076039;28;20048;-68
2022/06/19 02:16:37;;;;;;;3.20;2.90;;;;;;;19.74;63.56;99837.78;5077721;28;20080;-68
2022/06/19 02:19:04;;;;;;;4.78;2.88;;;;;;;19.76;63.47;99826.91;5085000;28;20047;-68
2022/06/19 02:21:37;;;;;;;4.63;2.95;;;;;;;19.64;63.45;99827.78;5086518;28;20571;-68
2022/06/19 02:24:07;;;;;;;3.00;2.70;;;;;;;19.65;63.59;99833.09;5079681;28;20052;-67
2022/06/19 02:26:39;;;;;;;3.25;2.90;;;;;;;19.64;63.50;99817.28;5081694;28;20407;-69
2022/06/19 02:29:09;;;;;;;5.72;3.58;;;;;;;19.53;63.79;99813.28;5084614;28;20052;-71
2022/06/19 02:31:41;;;;;;;4.25;3.25;;;;;;;19.53;64.06;99826.63;5084089;28;20079;-70
2022/06/19 02:34:17;;;;;;;5.00;3.50;;;;;;;19.36;64.41;99827.72;5079937;28;20048;-71
2022/06/19 02:36:49;;;;;;;6.63;3.50;;;;;;;19.35;64.94;99837.38;5084960;28;20414;-70
2022/06/19 02:39:40;;;;;;;7.55;4.03;;;;;;;19.38;64.89;99831.00;5083433;28;20549;-69
2022/06/19 02:42:16;;;;;;;6.65;3.58;;;;;;;19.44;64.34;99826.75;5097062;28;20068;-69
2022/06/19 02:44:43;;;;;;;8.35;3.70;;;;;;;19.11;64.80;99781.66;5076379;28;20055;-69
2022/06/19 02:47:10;;;;;;;6.07;3.55;;;;;;;19.34;65.08;99827.25;5076595;28;20094;-69
2022/06/19 02:49:37;;;;;;;5.50;4.40;;;;;;;18.70;65.20;99744.81;5080360;28;20117;-67
2022/06/19 02:52:05;;;;;;;6.43;4.13;;;;;;;19.10;65.43;99808.31;5084485;28;20072;-68
2022/06/19 02:54:32;;;;;;;6.40;2.42;;;;;;;19.14;65.35;99812.91;5076417;28;20056;-69
2022/06/19 02:56:59;;;;;;;4.30;1.88;;;;;;;18.55;65.35;99737.03;5083425;28;20089;-68
2022/06/19 02:59:26;;;;;;;8.73;3.30;;;;;;;19.02;65.46;99812.09;5074305;28;20143;-68
2022/06/19 03:01:53;;;;;;;8.02;3.75;;;;;;;18.96;65.80;99808.69;5081634;28;20578;-67
2022/06/19 03:04:25;;;;;;;3.90;2.20;;;;;;;19.04;65.75;99813.41;5093077;28;20470;-69
2022/06/19 03:06:54;;;;;;;7.22;1.80;;;;;;;19.08;65.67;99811.50;5083632;28;20040;-70
2022/06/19 03:09:22;;;;;;;4.00;1.48;;;;;;;18.70;65.61;99770.25;5086727;28;20041;-71
2022/06/19 03:11:49;;;;;;;4.50;2.28;;;;;;;18.43;65.47;99725.72;5086879;28;20059;-70
2022/06/19 03:14:17;;;;;;;7.88;2.30;;;;;;;18.96;65.53;99807.84;5091102;28;20048;-70
2022/06/19 03:16:45;;;;;;;8.98;2.45;;;;;;;18.83;65.12;99792.88;5092547;28;20078;-70
2022/06/19 03:19:13;;;;;;;4.85;2.10;;;;;;;18.93;65.15;99818.69;5089626;28;20073;-70
2022/06/19 03:21:40;;;;;;;16.42;3.28;;;;;;;18.88;64.92;99807.63;5091546;28;20052;-69
2022/06/19 03:24:07;;;;;;;6.93;2.63;;;;;;;18.45;64.72;99738.31;5073465;28;20423;-69
2022/06/19 03:26:35;;;;;;;6.13;2.80;;;;;;;19.12;64.58;99828.59;5086078;28;20604;-70
2022/06/19 03:29:02;;;;;;;3.78;2.08;;;;;;;18.88;64.42;99789.84;5083146;28;20048;-70
2022/06/19 03:31:30;;;;;;;4.82;1.90;;;;;;;19.23;64.07;99829.75;5081331;28;20473;-70
2022/06/19 03:33:58;;;;;;;4.53;1.85;;;;;;;19.23;63.98;99828.94;5088567;28;20080;-71
2022/06/19 03:36:25;;;;;;;5.63;2.00;;;;;;;19.18;64.24;99833.66;5083778;28;20498;-71
2022/06/19 03:38:52;;;;;;;9.48;2.22;;;;;;;19.15;64.07;99840.03;5080240;28;20056;-70
2022/06/19 03:41:19;;;;;;;4.82;1.90;;;;;;;19.17;64.07;99834.81;5078407;28;20056;-70
2022/06/19 03:43:46;;;;;;;3.85;1.77;;;;;;;19.00;64.02;99817.28;5082385;28;20071;-70
2022/06/19 03:46:16;;;;;;;8.30;2.58;;;;;;;19.05;63.67;99823.53;5076444;28;20040;-70
2022/06/19 03:48:46;;;;;;;3.38;2.08;;;;;;;18.94;63.84;99813.88;5080680;28;20056;-70
2022/06/19 03:51:15;;;;;;;;;;;;;;;19.09;63.62;99844.28;5076456;28;20056;-70
2022/06/19 03:53:45;;;;;;;7.83;4.10;;;;;;;19.09;63.83;99832.13;5072066;28;19920;-69
2022/06/19 03:56:23;;;;;;;7.38;4.60;;;;;;;18.89;64.23;99814.09;5087732;28;20071;-68
2022/06/19 03:58:51;;;;;;;12.27;4.75;;;;;;;18.92;64.38;99821.88;5086178;28;20107;-68
2022/06/19 04:01:21;;;;;;;5.63;3.80;;;;;;;18.99;64.77;99841.91;5082033;28;20090;-69
2022/06/19 04:03:49;;;;;;;7.75;4.03;;;;;;;19.06;64.73;99839.31;5080859;28;20123;-69
2022/06/19 04:06:18;;;;;;;7.28;3.88;;;;;;;19.06;65.02;99825.16;5073647;28;20072;-69
2022/06/19 04:08:46;;;;;;;4.53;3.45;;;;;;;18.53;64.80;99750.69;5084257;28;20088;-68
2022/06/19 04:11:14;;;;;;;7.32;3.35;;;;;;;19.02;65.03;99807.25;5084736;28;20141;-68
2022/06/19 04:13:41;;;;;;;8.35;3.50;;;;;;;19.22;64.79;99841.44;5084252;28;20547;-69
2022/06/19 04:16:15;;;;;;;6.72;3.70;;;;;;;19.10;65.13;99830.94;5086601;28;20498;-69
2022/06/19 04:18:42;;;;;;;3.92;2.88;;;;;;;18.77;65.13;99795.16;5080128;28;20049;-70
2022/06/19 04:21:17;;;;;;;4.95;3.75;;;;;;;19.02;65.22;99824.25;5074048;28;20056;-70
2022/06/19 04:23:44;;;;;;;5.30;4.70;;;;;;;18.69;65.17;99788.38;5077148;28;20751;-70
2022/06/19 04:26:14;;;;;;;7.70;3.30;;;;;;;18.89;65.36;99816.94;5092116;28;20044;-70
2022/06/19 04:28:41;;;;;;;3.00;2.75;;;;;;;18.62;65.83;99776.84;5087513;28;20048;-67
2022/06/19 04:31:08;;;;;;;3.38;3.08;;;;;;;18.57;65.74;99779.91;5085743;28;20105;-70
2022/06/19 04:33:41;;;;;;;5.30;3.13;;;;;;;18.80;65.88;99819.06;5084753;28;20074;-69
2022/06/19 04:36:11;;;;;;;3.70;3.40;;;;;;;18.73;66.02;99827.31;5077741;28;20086;-69
2022/06/19 04:38:39;;;;;;;4.10;3.20;;;;;;;18.55;66.37;99824.66;5091245;28;20087;-71
2022/06/19 04:41:18;;;;;;;8.90;3.08;;;;;;;18.17;66.49;99776.94;5089503;28;20044;-71
2022/06/19 04:43:46;;;;;;;2.97;2.78;;;;;;;18.37;66.99;99832.53;5093420;28;20087;-69
2022/06/19 04:46:13;;;;;;;4.32;2.83;;;;;;;18.05;67.24;99791.88;5083191;28;20483;-71
2022/06/19 04:48:40;;;;;;;5.90;2.85;;;;;;;18.09;67.90;99820.25;5093998;28;20083;-71
2022/06/19 04:51:07;;;;;;;5.28;3.33;;;;;;;17.74;68.09;99775.34;5080924;28;20044;-71
2022/06/19 04:53:34;;;;;;;4.15;3.17;;;;;;;17.94;68.09;99816.88;5087958;28;20052;-70
2022/06/19 04:56:01;;;;;;;2.90;2.70;;;;;;;17.64;68.36;99793.59;5086038;28;20106;-70
2022/06/19 04:58:28;;;;;;;5.95;3.47;;;;;;;18.03;68.21;99835.75;5095323;28;20448;-70
2022/06/19 05:00:56;;;;;;;4.72;3.72;;;;;;;18.02;68.42;99832.13;5086817;28;20060;-70
2022/06/19 05:03:24;;;;;;;5.47;3.42;;;;;;;17.99;68.53;99822.31;5090135;28;20129;-71
2022/06/19 05:05:53;;;;;;;8.65;3.28;;;;;;;17.91;69.00;99813.94;5088714;28;20089;-69
2022/06/19 05:08:21;;;;;;;9.80;4.00;;;;;;;17.53;68.85;99787.50;5090492;28;20125;-70
2022/06/19 05:10:49;;;;;;;8.07;3.70;;;;;;;17.88;69.12;99837.22;5090768;28;20510;-69
2022/06/19 05:13:18;;;;;;;6.15;2.90;;;;;;;17.99;68.76;99829.97;5085037;28;20055;-69
2022/06/19 05:15:46;;;;;;;4.37;3.47;;;;;;;17.76;68.66;99779.53;5080864;28;20144;-69
2022/06/19 05:18:14;;;;;;;5.90;2.78;;;;;;;17.95;68.96;99827.03;5086557;28;20296;-69
2022/06/19 05:20:42;;;;;;;4.13;3.13;;;;;;;18.08;68.49;99829.88;5082190;28;20468;-69
2022/06/19 05:23:10;;;;;;;2.80;2.60;;;;;;;18.10;68.39;99838.84;5078172;28;20154;-69
2022/06/19 05:25:37;;;;;;;7.15;3.28;;;;;;;18.24;68.01;99833.69;5078580;28;20093;-69
2022/06/19 05:28:04;;;;;;;7.38;3.20;;;;;;;18.29;67.84;99844.78;5080118;28;20104;-70
2022/06/19 05:30:31;;;;;;;4.68;3.40;;;;;;;17.82;67.37;99749.06;5082519;28;20130;-69
2022/06/19 05:32:58;;;;;;;5.63;4.88;;;;;;;18.39;67.17;99840.66;5083794;28;20078;-70
2022/06/19 05:35:25;;;;;;;6.72;5.82;;;;;;;18.46;67.54;99858.72;5089426;28;20506;-68
2022/06/19 05:37:52;;;;;;;8.35;7.82;;;;;;;18.48;67.19;99856.34;5085294;28;20093;-69
2022/06/19 05:40:19;;;;;;;7.05;6.35;;;;;;;18.56;66.87;99848.94;5075219;28;20121;-69
2022/06/19 05:42:47;;;;;;;9.48;6.38;;;;;;;18.58;67.12;99832.47;5083043;28;20105;-69
2022/06/19 05:45:14;;;;;;;7.00;6.60;;;;;;;18.65;66.22;99824.22;5080808;28;20506;-70
2022/06/19 05:47:41;;;;;;;7.07;6.47;;;;;;;18.85;66.36;99864.09;5082155;28;20072;-69
2022/06/19 05:50:10;;;;;;;9.07;8.13;;;;;;;18.91;65.89;99823.06;5085061;28;20452;-70
2022/06/19 05:52:37;;;;;;;7.40;6.85;;;;;;;19.10;65.62;99830.94;5072943;28;20788;-69
2022/06/19 05:55:05;;;;;;;8.38;7.68;;;;;;;19.38;65.26;99862.16;5080068;28;20068;-69
2022/06/19 05:57:33;;;;;;;8.20;7.60;;;;;;;19.44;64.91;99852.22;5072340;28;20072;-69
2022/06/19 06:00:01;;;;;;;9.23;8.48;;;;;;;19.40;64.92;99828.66;5089275;28;20140;-69
2022/06/19 06:02:27;;;;;;;7.57;7.10;;;;;;;19.09;64.53;99772.72;5075900;28;20052;-70
2022/06/19 06:04:54;;;;;;;10.95;2.75;;;;;;;19.70;64.10;99866.00;5081104;28;20048;-70
2022/06/19 06:07:21;;;;;;;2.80;1.50;;;;;;;19.51;63.99;99858.13;5084441;28;20047;-69
2022/06/19 06:09:49;;;;;;;2.70;1.25;;;;;;;19.16;64.03;99826.69;5079652;28;20047;-69
2022/06/19 06:12:16;;;;;;;3.63;1.60;;;;;;;19.36;64.18;99873.03;5078758;28;20101;-69
2022/06/19 06:14:43;;;;;;;2.90;1.17;;;;;;;19.28;64.36;99869.16;5074711;28;20056;-69
2022/06/19 06:17:09;;;;;;;2.55;1.27;;;;;;;19.37;63.95;99874.66;5083953;28;20040;-68
2022/06/19 06:19:36;;;;;;;2.70;1.15;;;;;;;19.38;64.24;99879.13;5081550;28;20072;-69
2022/06/19 06:22:04;;;;;;;4.57;1.58;;;;;;;19.52;64.09;99876.78;5075714;28;20044;-69
2022/06/19 06:24:32;;;;;;;2.47;1.45;;;;;;;19.69;63.91;99869.19;5070110;28;20099;-69
2022/06/19 06:27:03;;;;;;;3.30;1.35;;;;;;;19.78;63.55;99841.53;5071703;28;20056;-66
2022/06/19 06:29:30;;;;;;;2.58;1.40;;;;;;;19.96;62.98;99845.72;5074830;28;20048;-66
2022/06/19 06:31:58;;;;;;;4.65;1.42;;;;;;;20.41;62.44;99872.91;5074412;28;20165;-66
2022/06/19 06:34:25;;;;;;;2.92;1.23;;;;;;;20.38;62.28;99845.28;5073557;28;20056;-67
2022/06/19 06:36:51;;;;;;;4.53;1.60;;;;;;;20.84;61.84;99891.06;5077475;28;20052;-66
2022/06/19 06:39:20;;;;;;;3.90;1.58;;;;;;;20.57;61.37;99804.84;5078745;28;20506;-66
2022/06/19 06:41:47;;;;;;;3.42;2.03;;;;;;;20.85;61.02;99806.75;5073697;28;20120;-66
2022/06/19 06:44:14;;;;;;;4.38;1.38;;;;;;;21.65;60.46;99891.44;5083979;28;20052;-66
2022/06/19 06:46:41;;;;;;;3.45;1.48;;;;;;;21.75;59.99;99890.03;5074925;28;20487;-66
2022/06/19 06:49:09;;;;;;;4.30;1.80;;;;;;;21.55;60.10;99845.75;5083853;28;20040;-66
2022/06/19 06:51:37;;;;;;;3.08;1.58;;;;;;;21.24;59.87;99824.75;5087524;28;20564;-66
2022/06/19 06:54:04;;;;;;;3.28;1.52;;;;;;;21.61;60.18;99896.22;5091644;28;20516;-66
2022/06/19 06:56:35;;;;;;;4.93;1.67;;;;;;;21.60;60.18;99893.75;5087901;28;20166;-66
2022/06/19 06:59:03;;;;;;;4.25;1.70;;;;;;;21.70;59.81;99901.69;5088716;28;20084;-66
2022/06/19 07:01:32;;;;;;;8.05;1.83;;;;;;;21.67;59.97;99897.56;5086742;28;20060;-67
2022/06/19 07:03:59;;;;;;;3.97;1.50;;;;;;;21.67;59.79;99906.09;5091811;28;20083;-67
2022/06/19 07:06:28;;;;;;;2.72;1.30;;;;;;;21.29;59.94;99862.19;5081168;28;20040;-67
2022/06/19 07:08:56;;;;;;;4.78;1.80;;;;;;;21.45;60.16;99899.09;5090106;28;20094;-67
2022/06/19 07:11:37;;;;;;;6.95;2.13;;;;;;;21.40;60.19;99907.94;5090415;28;20098;-66
2022/06/19 07:14:05;;;;;;;5.30;2.30;;;;;;;21.31;60.03;99907.25;5090774;28;20157;-67
2022/06/19 07:16:32;;;;;;;6.70;2.55;;;;;;;21.24;60.40;99905.06;5087345;28;20098;-66
2022/06/19 07:18:59;;;;;;;3.20;1.80;;;;;;;21.14;60.47;99907.66;5087839;28;20110;-66
2022/06/19 07:21:26;;;;;;;11.18;2.30;;;;;;;20.96;60.40;99876.81;5079708;28;20090;-67
2022/06/19 07:23:54;;;;;;;5.97;2.90;;;;;;;21.14;60.61;99902.78;5081677;28;20449;-66
2022/06/19 07:26:23;;;;;;;3.60;1.95;;;;;;;21.24;60.55;99915.59;5083937;28;20071;-67
2022/06/19 07:28:50;;;;;;;3.30;1.50;;;;;;;21.17;60.74;99906.91;5077868;28;20105;-66
2022/06/19 07:31:26;;;;;;;6.93;1.58;;;;;;;21.13;60.51;99905.97;5077122;28;20052;-66
2022/06/19 07:33:53;;;;;;;9.23;2.45;;;;;;;21.21;60.44;99922.84;5084606;28;20056;-67
2022/06/19 07:36:22;;;;;;;4.95;1.80;;;;;;;21.31;60.77;99927.13;5077462;28;20687;-67
2022/06/19 07:38:49;;;;;;;8.57;2.55;;;;;;;21.26;60.94;99924.56;5086312;28;20490;-67
2022/06/19 07:41:16;;;;;;;7.45;2.08;;;;;;;20.79;60.58;99848.81;5087779;28;20578;-67
2022/06/19 07:43:46;;;;;;;12.93;1.75;;;;;;;21.28;60.87;99923.00;5087643;28;20087;-67
2022/06/19 07:46:13;;;;;;;8.43;2.22;;;;;;;21.34;60.99;99915.06;5078689;28;20063;-68
2022/06/19 07:51:31;;;;;;;5.85;2.20;;;;;;;21.67;61.10;99922.31;5082718;28;20075;-67
2022/06/19 07:53:59;;;;;;;7.50;2.10;;;;;;;21.97;60.96;99926.25;5092789;28;20047;-67
2022/06/19 07:56:26;;;;;;;4.90;1.92;;;;;;;22.07;60.37;99881.38;5080809;28;20079;-67
2022/06/19 07:58:54;;;;;;;5.13;2.25;;;;;;;22.57;59.63;99913.69;5088622;28;20091;-68
2022/06/19 08:01:21;;;;;;;4.22;2.42;;;;;;;22.40;59.00;99847.53;5084950;28;20056;-67
2022/06/19 08:03:47;;;;;;;4.18;2.08;;;;;;;22.96;58.37;99920.13;5074962;28;20048;-67
2022/06/19 08:06:17;;;;;;;2.63;1.60;;;;;;;22.86;58.44;99909.34;5085343;28;20101;-66
2022/06/19 08:08:44;;;;;;;6.00;2.20;;;;;;;22.37;58.46;99851.13;5092152;28;20083;-66
2022/06/19 08:11:12;;;;;;;5.63;2.20;;;;;;;22.53;58.48;99890.88;5082010;28;20098;-67
2022/06/19 08:13:39;;;;;;;5.35;2.53;;;;;;;22.64;58.86;99920.34;5082869;28;20083;-67
2022/06/19 08:16:08;;;;;;;5.60;1.90;;;;;;;22.78;58.61;99925.47;5077955;28;20048;-67
2022/06/19 08:18:36;;;;;;;;;;;;;;;22.69;59.13;99934.25;5089397;28;20452;-67
2022/06/19 08:21:04;;;;;;;4.88;1.80;;;;;;;22.60;58.59;99924.31;5074390;28;19963;-67
2022/06/19 08:23:31;;;;;;;4.35;1.75;;;;;;;22.55;58.75;99927.47;5074257;28;20103;-67
2022/06/19 08:25:59;;;;;;;5.90;1.98;;;;;;;22.42;58.57;99919.09;5073954;28;20053;-67
2022/06/19 08:28:40;;;;;;;4.15;1.60;;;;;;;22.44;58.17;99922.38;5090237;28;20411;-67
2022/06/19 08:31:07;;;;;;;3.92;1.45;;;;;;;22.56;57.85;99929.09;5095575;27;20533;-66
2022/06/19 08:33:34;;;;;;;3.28;1.73;;;;;;;22.60;58.50;99918.63;5076807;28;20101;-67
2022/06/19 08:36:08;;;;;;;3.88;1.70;;;;;;;22.37;57.96;99853.97;5073969;28;20080;-67
2022/06/19 08:38:40;;;;;;;7.82;1.90;;;;;;;23.11;57.83;99924.03;5073759;28;20549;-67
2022/06/19 08:41:06;;;;;;;4.15;1.58;;;;;;;23.46;57.31;99923.00;5086144;28;20083;-67
2022/06/19 08:43:55;;;;;;;5.55;1.58;;;;;;;23.70;56.18;99919.72;5081814;28;20122;-67
2022/06/19 08:46:47;;;;;;;4.60;1.40;;;;;;;23.89;56.35;99913.06;5084316;28;20491;-66
2022/06/19 08:49:16;;;;;;;2.63;1.40;;;;;;;24.11;55.61;99928.44;5086114;28;20052;-67
2022/06/19 08:51:53;;;;;;;;;;;;;;;24.44;56.33;99927.63;5093271;28;20077;-67
2022/06/19 08:54:39;;;;;;;2.05;1.40;;;;;;;24.89;54.56;99924.84;5080642;28;19982;-68
2022/06/19 08:57:25;;;;;;;3.28;1.40;;;;;;;25.02;54.02;99909.06;5073333;28;20107;-66
2022/06/19 09:00:05;;;;;;;4.18;1.48;;;;;;;25.16;53.84;99903.53;5073135;28;20083;-66
2022/06/19 09:02:58;;;;;;;6.53;1.67;;;;;;;24.98;53.38;99900.47;5089365;28;20457;-67
2022/06/19 09:05:45;;;;;;;2.47;1.45;;;;;;;25.08;53.06;99918.91;5084228;28;20125;-67
2022/06/19 09:08:26;;;;;;;2.28;1.10;;;;;;;25.28;52.44;99923.19;5078231;28;20174;-67
2022/06/19 09:11:12;;;;;;;4.03;2.10;;;;;;;25.33;52.44;99929.75;5091641;28;20074;-67
2022/06/19 09:13:48;;;;;;;1.48;1.25;;;;;;;25.61;51.95;99912.03;5084690;28;20090;-67
2022/06/19 09:16:37;;;;;;;5.20;1.50;;;;;;;25.66;51.78;99901.00;5078755;28;20113;-67
2022/06/19 09:19:13;;;;;;;3.05;1.60;;;;;;;26.14;50.64;99909.47;5074704;28;20396;-67
2022/06/19 09:22:11;;;;;;;2.25;1.65;;;;;;;26.42;50.46;99928.78;5074367;28;20056;-67
2022/06/19 09:25:03;;;;;;;5.20;1.75;;;;;;;26.65;49.73;99927.66;5026830;28;20044;-66
2022/06/19 09:27:41;;;;;;;2.47;1.42;;;;;;;26.73;49.27;99932.19;5077570;28;20133;-68
2022/06/19 09:30:20;;;;;;;2.88;1.40;;;;;;;26.65;48.28;99930.53;5075080;28;20080;-67
2022/06/19 09:32:58;;;;;;;1.83;1.23;;;;;;;26.41;48.67;99934.94;5073406;28;20072;-67
2022/06/19 09:35:44;;;;;;;2.55;1.02;;;;;;;26.18;48.89;99929.50;5078600;28;20120;-67
2022/06/19 09:38:29;;;;;;;2.20;1.52;;;;;;;26.42;48.87;99930.84;5084474;28;20140;-68
2022/06/19 09:41:03;;;;;;;3.33;1.45;;;;;;;26.82;48.01;99920.34;5072724;28;20068;-67
2022/06/19 09:43:30;;;;;;;4.35;1.30;;;;;;;27.07;47.55;99935.50;5081660;28;20055;-67
2022/06/19 09:46:06;;;;;;;4.25;1.50;;;;;;;26.58;47.81;99870.38;5079232;28;20141;-66
2022/06/19 09:49:02;;;;;;;2.58;1.50;;;;;;;26.51;48.08;99937.03;5076923;28;20141;-66
2022/06/19 09:51:33;;;;;;;1.67;1.30;;;;;;;26.24;48.00;99894.38;5068970;28;21046;-66
2022/06/19 09:54:12;;;;;;;3.85;0.90;;;;;;;26.55;47.32;99943.59;5072685;28;20480;-66
2022/06/19 09:56:51;;;;;;;1.65;0.88;;;;;;;26.29;47.43;99943.88;5074214;28;20048;-66
2022/06/19 09:59:33;;;;;;;3.58;1.65;;;;;;;25.94;47.78;99926.13;5076486;28;20165;-66
2022/06/19 10:02:27;;;;;;;1.65;1.00;;;;;;;26.10;48.04;99933.56;5077312;28;20083;-66
2022/06/19 10:05:03;;;;;;;4.00;1.50;;;;;;;26.37;47.86;99932.06;5079061;28;20120;-66
2022/06/19 10:07:39;;;;;;;3.03;1.10;;;;;;;26.59;47.53;99926.41;5078762;28;20086;-66
2022/06/19 10:10:28;;;;;;;2.35;0.95;;;;;;;26.73;46.82;99939.97;5076099;28;20071;-66
2022/06/19 10:12:58;;;;;;;3.05;1.35;;;;;;;26.44;46.62;99928.41;5085016;28;20098;-66
2022/06/19 10:15:35;;;;;;;6.30;1.13;;;;;;;26.63;46.28;99933.81;5073137;28;20801;-65
2022/06/19 10:18:19;;;;;;;2.47;1.40;;;;;;;26.91;46.28;99937.97;5073785;28;20439;-65
2022/06/19 10:21:01;;;;;;;4.18;1.33;;;;;;;27.13;46.34;99933.09;5082200;28;20052;-66
2022/06/19 10:23:33;;;;;;;4.38;1.63;;;;;;;27.47;45.59;99942.09;5074109;28;20135;-66
2022/06/19 10:26:24;;;;;;;4.00;1.27;;;;;;;27.82;45.18;99940.44;5078445;28;20083;-65
2022/06/19 10:28:54;;;;;;;1.95;1.10;;;;;;;28.02;44.83;99949.44;5074617;28;20525;-65
2022/06/19 10:31:40;;;;;;;2.03;0.98;;;;;;;28.26;44.29;99944.84;5078137;28;20584;-65
2022/06/19 10:34:26;;;;;;;2.53;0.98;;;;;;;28.10;44.39;99880.13;5075139;28;20060;-65
2022/06/19 10:36:56;;;;;;;3.30;1.48;;;;;;;28.73;43.45;99946.28;5076225;28;20051;-65
2022/06/19 10:39:35;;;;;;;3.60;1.40;;;;;;;28.55;43.80;99955.00;5075870;28;20075;-65
2022/06/19 10:42:17;;;;;;;1.30;0.95;;;;;;;28.37;43.69;99956.28;5076392;28;20067;-66
2022/06/19 10:45:12;;;;;;;3.22;1.40;;;;;;;28.03;43.95;99956.78;5079038;28;20472;-65
2022/06/19 10:47:51;;;;;;;4.05;1.60;;;;;;;28.27;43.58;99960.81;5074269;28;20067;-64
2022/06/19 10:50:32;;;;;;;1.92;1.20;;;;;;;28.53;42.70;99951.72;5079450;28;20150;-65
2022/06/19 10:53:17;;;;;;;3.63;0.80;;;;;;;28.63;42.53;99960.72;5078563;28;20495;-66
2022/06/19 10:55:51;;;;;;;1.40;1.30;;;;;;;28.36;42.02;99918.13;5071479;28;20048;-67
2022/06/19 10:58:22;;;;;;;2.47;1.13;;;;;;;28.99;41.95;99959.31;5070929;28;20049;-65
2022/06/19 11:00:55;;;;;;;5.03;2.20;;;;;;;28.81;41.50;99926.94;5076552;28;20056;-66
2022/06/19 11:06:48;;;;;;;1.20;0.90;;;;;;;28.92;42.16;99956.41;5075090;28;20048;-65
2022/06/19 11:09:39;;;;;;;3.28;1.13;;;;;;;28.87;42.15;99948.25;5073864;28;20298;-65
2022/06/19 11:12:18;;;;;;;4.50;1.20;;;;;;;29.13;41.91;99963.28;5069304;28;20056;-65
2022/06/19 11:14:56;;;;;;;;;;;;;;;29.17;42.87;99964.91;5081526;28;20167;-65
2022/06/19 11:17:30;;;;;;;4.22;1.40;;;;;;;29.58;41.14;99969.13;5082861;28;20027;-65
2022/06/19 11:19:58;;;;;;;2.83;0.82;;;;;;;29.79;40.30;99968.94;5083376;28;20079;-65
2022/06/19 11:22:47;;;;;;;3.22;1.77;;;;;;;28.95;40.87;99883.72;5079156;28;20052;-65
2022/06/19 11:25:20;;;;;;;3.45;1.48;;;;;;;29.79;40.27;99957.41;5070844;28;20477;-68
2022/06/19 11:27:52;;;;;;;6.82;2.15;;;;;;;29.98;39.29;99964.63;5082188;28;20105;-65
2022/06/19 11:30:33;;;;;;;4.65;1.20;;;;;;;30.06;39.71;99957.56;5078199;28;20048;-66
2022/06/19 11:33:04;;;;;;;4.22;1.60;;;;;;;30.48;39.14;99957.50;5077875;28;20048;-66
2022/06/19 11:35:41;;;;;;;2.10;0.85;;;;;;;30.84;38.70;99944.25;5088904;28;20494;-66
2022/06/19 11:38:09;;;;;;;4.70;1.45;;;;;;;30.86;38.56;99958.22;5081830;28;20044;-66
2022/06/19 11:40:39;;;;;;;2.22;1.30;;;;;;;31.06;37.81;99946.81;5076305;28;20096;-66
2022/06/19 11:43:31;;;;;;;1.40;1.10;;;;;;;30.97;38.13;99947.34;5080689;28;20134;-66
2022/06/19 11:46:26;;;;;;;5.97;0.98;;;;;;;30.89;38.80;99932.22;5081187;28;20149;-66
2022/06/19 11:48:53;;;;;;;1.95;0.85;;;;;;;30.96;37.97;99902.47;5070352;28;20802;-66
2022/06/19 11:51:24;;;;;;;3.15;1.45;;;;;;;31.62;37.55;99933.53;5077424;28;20072;-66
2022/06/19 11:53:55;;;;;;;3.38;1.00;;;;;;;31.82;36.77;99924.09;5075890;28;20175;-65
2022/06/19 11:56:34;;;;;;;2.03;0.88;;;;;;;31.87;37.01;99932.28;5077496;28;20964;-65
2022/06/19 11:59:17;;;;;;;3.13;1.13;;;;;;;31.86;36.76;99931.44;5079592;28;20137;-65
2022/06/19 12:01:46;;;;;;;1.55;0.82;;;;;;;32.01;36.27;99937.78;5081146;28;20079;-64
2022/06/19 12:04:39;;;;;;;3.28;1.23;;;;;;;31.90;36.74;99927.69;5080922;28;20135;-65